createdAt,value
2023-02-05T00:00:52.329Z,8.05
2023-02-05T00:03:20.451Z,8.13
2023-02-05T00:05:48.525Z,8.38
2023-02-05T00:08:17.984Z,9.02
2023-02-05T00:10:51.952Z,11.00
2023-02-05T00:13:20.144Z,9.82
2023-02-05T00:15:48.143Z,11.05
2023-02-05T00:18:16.170Z,9.98
2023-02-05T00:20:44.285Z,10.80
2023-02-05T00:23:12.408Z,8.23
2023-02-05T00:25:41.906Z,7.20
2023-02-05T00:28:10.016Z,8.13
2023-02-05T00:30:41.190Z,7.78
2023-02-05T00:33:09.329Z,8.75
2023-02-05T00:35:37.421Z,9.13
2023-02-05T00:38:05.530Z,9.38
2023-02-05T00:40:33.643Z,10.95
2023-02-05T00:43:03.143Z,9.55
2023-02-05T00:45:35.264Z,9.30
2023-02-05T00:48:04.318Z,10.20
2023-02-05T00:50:32.477Z,9.60
2023-02-05T00:53:00.591Z,9.73
2023-02-05T00:55:29.382Z,9.60
2023-02-05T00:57:57.623Z,10.18
2023-02-05T01:00:27.947Z,9.40
2023-02-05T01:02:56.068Z,9.13
2023-02-05T01:05:24.179Z,10.38
2023-02-05T01:07:52.232Z,9.82
2023-02-05T01:10:20.447Z,8.52
2023-02-05T01:12:49.985Z,9.67
2023-02-05T01:15:18.685Z,9.20
2023-02-05T01:17:48.618Z,9.20
2023-02-05T01:20:17.353Z,9.40
2023-02-05T01:22:45.579Z,9.57
2023-02-05T01:25:13.653Z,8.23
2023-02-05T01:27:41.869Z,9.27
2023-02-05T01:30:11.904Z,8.23
2023-02-05T01:32:41.659Z,7.45
2023-02-05T01:35:11.430Z,7.63
2023-02-05T01:37:39.623Z,7.13
2023-02-05T01:40:08.422Z,7.15
2023-02-05T01:42:36.482Z,6.57
2023-02-05T01:45:53.181Z,7.10
2023-02-05T01:48:24.900Z,6.43
2023-02-05T01:50:58.349Z,7.22
2023-02-05T01:53:30.372Z,7.60
2023-02-05T01:56:01.226Z,6.90
2023-02-05T01:58:33.362Z,6.68
2023-02-05T02:01:01.645Z,6.97
2023-02-05T02:03:32.832Z,6.82
2023-02-05T02:06:04.763Z,6.75
2023-02-05T02:08:33.758Z,7.80
2023-02-05T02:11:05.872Z,7.22
2023-02-05T02:13:36.798Z,6.47
2023-02-05T02:16:06.549Z,6.50
2023-02-05T02:18:35.356Z,5.97
2023-02-05T02:21:28.697Z,5.85
2023-02-05T02:24:24.730Z,5.10
2023-02-05T02:27:10.654Z,5.70
2023-02-05T02:29:48.148Z,5.45
2023-02-05T02:32:22.244Z,5.15
2023-02-05T02:34:57.050Z,5.40
2023-02-05T02:37:34.461Z,6.20
2023-02-05T02:40:08.819Z,5.47
2023-02-05T02:42:42.383Z,6.78
2023-02-05T02:45:14.540Z,6.68
2023-02-05T02:47:48.198Z,5.55
2023-02-05T02:50:20.240Z,4.43
2023-02-05T02:52:50.652Z,5.38
2023-02-05T02:55:20.742Z,5.40
2023-02-05T02:57:52.215Z,6.50
2023-02-05T03:00:26.037Z,5.10
2023-02-05T03:02:59.160Z,4.80
2023-02-05T03:05:29.013Z,4.35
2023-02-05T03:08:02.611Z,4.43
2023-02-05T03:10:42.621Z,4.63
2023-02-05T03:13:11.922Z,4.75
2023-02-05T03:15:44.808Z,4.10
2023-02-05T03:18:13.590Z,5.25
2023-02-05T03:20:46.725Z,5.18
2023-02-05T03:23:14.755Z,5.00
2023-02-05T03:25:42.901Z,4.80
2023-02-05T03:28:12.607Z,4.35
2023-02-05T03:30:52.886Z,3.97
2023-02-05T03:33:40.861Z,4.40
2023-02-05T03:36:17.579Z,4.50
2023-02-05T03:39:05.079Z,4.25
2023-02-05T03:41:58.002Z,4.47
2023-02-05T03:44:50.196Z,4.53
2023-02-05T03:47:27.293Z,4.10
2023-02-05T03:50:08.309Z,5.18
2023-02-05T03:52:42.891Z,3.83
2023-02-05T03:55:15.060Z,3.97
2023-02-05T03:57:50.213Z,4.78
2023-02-05T04:00:18.976Z,4.75
2023-02-05T04:02:48.542Z,5.28
2023-02-05T04:05:16.788Z,5.35
2023-02-05T04:07:44.866Z,4.22
2023-02-05T04:10:13.078Z,6.20
2023-02-05T04:12:41.184Z,4.18
2023-02-05T04:15:10.838Z,4.20
2023-02-05T04:17:39.497Z,5.18
2023-02-05T04:20:10.357Z,4.35
2023-02-05T04:22:38.487Z,4.57
2023-02-05T04:25:07.368Z,4.85
2023-02-05T04:27:35.482Z,3.80
2023-02-05T04:30:03.680Z,3.95
2023-02-05T04:32:31.772Z,3.63
2023-02-05T04:34:59.902Z,4.45
2023-02-05T04:37:29.328Z,4.97
2023-02-05T04:39:57.414Z,3.72
2023-02-05T04:42:25.611Z,3.63
2023-02-05T04:44:54.477Z,4.05
2023-02-05T04:47:22.817Z,3.88
2023-02-05T04:49:50.891Z,4.70
2023-02-05T04:52:18.949Z,4.00
2023-02-05T04:54:48.349Z,3.95
2023-02-05T04:57:16.549Z,4.68
2023-02-05T04:59:44.605Z,4.32
2023-02-05T05:02:12.689Z,4.15
2023-02-05T05:04:43.117Z,4.30
2023-02-05T05:07:11.356Z,3.97
2023-02-05T05:09:39.586Z,4.70
2023-02-05T05:12:09.389Z,5.00
2023-02-05T05:14:38.782Z,4.40
2023-02-05T05:17:07.358Z,5.90
2023-02-05T05:19:35.576Z,5.00
2023-02-05T05:22:03.710Z,5.13
2023-02-05T05:24:31.963Z,5.40
2023-02-05T05:27:00.857Z,6.22
2023-02-05T05:29:30.299Z,5.80
2023-02-05T05:31:58.466Z,5.85
2023-02-05T05:34:26.656Z,6.43
2023-02-05T05:36:54.753Z,5.50
2023-02-05T05:39:36.721Z,5.50
2023-02-05T05:42:22.866Z,4.50
2023-02-05T05:44:53.041Z,7.13
2023-02-05T05:47:21.145Z,5.65
2023-02-05T05:49:49.490Z,5.78
2023-02-05T05:52:17.632Z,5.82
2023-02-05T05:54:46.351Z,5.15
2023-02-05T05:57:14.483Z,5.65
2023-02-05T05:59:42.607Z,6.20
2023-02-05T06:02:12.125Z,6.07
2023-02-05T06:04:40.268Z,5.65
2023-02-05T06:07:08.338Z,6.45
2023-02-05T06:09:36.371Z,5.70
2023-02-05T06:12:04.599Z,6.03
2023-02-05T06:14:32.633Z,6.22
2023-02-05T06:17:00.703Z,6.32
2023-02-05T06:19:30.192Z,5.53
2023-02-05T06:21:58.718Z,6.18
2023-02-05T06:24:26.812Z,5.75
2023-02-05T06:26:54.826Z,5.72
2023-02-05T06:29:23.003Z,5.05
2023-02-05T06:31:51.692Z,6.10
2023-02-05T06:34:19.931Z,6.07
2023-02-05T06:36:49.372Z,5.30
2023-02-05T06:39:17.421Z,5.55
2023-02-05T06:41:45.527Z,5.25
2023-02-05T06:44:13.618Z,5.53
2023-02-05T06:46:41.726Z,5.60
2023-02-05T06:49:09.806Z,6.32
2023-02-05T06:51:37.865Z,5.63
2023-02-05T06:54:07.477Z,5.65
2023-02-05T06:56:35.535Z,5.18
2023-02-05T06:59:03.696Z,6.78
2023-02-05T07:01:31.747Z,6.35
2023-02-05T07:03:59.904Z,5.63
2023-02-05T07:06:29.082Z,6.25
2023-02-05T07:08:57.346Z,6.43
2023-02-05T07:11:27.338Z,7.88
2023-02-05T07:13:55.539Z,6.75
2023-02-05T07:16:23.722Z,6.57
2023-02-05T07:18:53.172Z,7.00
2023-02-05T07:21:21.333Z,8.23
2023-02-05T07:23:49.384Z,8.15
2023-02-05T07:26:18.537Z,7.22
2023-02-05T07:28:47.996Z,7.30
2023-02-05T07:31:19.069Z,6.50
2023-02-05T07:33:47.944Z,6.60
2023-02-05T07:36:18.381Z,6.93
2023-02-05T07:38:47.522Z,6.55
2023-02-05T07:41:17.503Z,6.53
2023-02-05T07:43:47.198Z,6.43
2023-02-05T07:46:16.167Z,6.20
2023-02-05T07:48:44.409Z,6.65
2023-02-05T07:51:18.204Z,5.63
2023-02-05T07:53:46.395Z,7.03
2023-02-05T07:56:15.563Z,6.80
2023-02-05T07:58:44.080Z,6.80
2023-02-05T08:01:13.642Z,6.90
2023-02-05T08:03:41.723Z,6.60
2023-02-05T08:06:14.022Z,6.50
2023-02-05T08:08:42.096Z,6.00
2023-02-05T08:11:14.788Z,7.07
2023-02-05T08:13:43.326Z,6.60
2023-02-05T08:16:15.668Z,6.78
2023-02-05T08:18:44.504Z,6.18
2023-02-05T08:21:12.620Z,5.85
2023-02-05T08:23:40.646Z,6.90
2023-02-05T08:26:08.748Z,7.05
2023-02-05T08:28:36.947Z,6.03
2023-02-05T08:31:11.873Z,5.57
2023-02-05T08:33:41.643Z,6.20
2023-02-05T08:36:12.686Z,6.20
2023-02-05T08:38:40.821Z,6.70
2023-02-05T08:41:12.673Z,7.15
2023-02-05T08:43:42.734Z,5.93
2023-02-05T08:46:12.189Z,5.90
2023-02-05T08:48:42.981Z,6.50
2023-02-05T08:51:12.575Z,6.10
2023-02-05T08:53:41.303Z,6.10
2023-02-05T08:56:10.907Z,6.38
2023-02-05T08:58:39.802Z,5.70
2023-02-05T09:01:10.508Z,5.15
2023-02-05T09:03:39.203Z,5.60
2023-02-05T09:06:10.482Z,9.68
2023-02-05T09:08:38.935Z,7.03
2023-02-05T09:11:07.718Z,6.28
2023-02-05T09:13:36.113Z,7.53
2023-02-05T09:16:05.188Z,5.50
2023-02-05T09:18:33.333Z,4.47
2023-02-05T09:21:01.413Z,5.60
2023-02-05T09:23:31.153Z,6.43
2023-02-05T09:26:00.412Z,5.00
2023-02-05T09:28:28.652Z,5.05
2023-02-05T09:30:56.761Z,4.95
2023-02-05T09:33:24.925Z,5.25
2023-02-05T09:35:53.055Z,4.93
2023-02-05T09:38:21.127Z,4.65
2023-02-05T09:40:57.528Z,4.43
2023-02-05T09:43:36.418Z,5.25
2023-02-05T09:46:10.942Z,5.35
2023-02-05T09:48:50.631Z,5.80
2023-02-05T09:51:22.974Z,4.85
2023-02-05T09:53:56.589Z,5.22
2023-02-05T09:56:28.031Z,5.20
2023-02-05T09:58:58.334Z,7.03
2023-02-05T10:01:37.487Z,4.10
2023-02-05T10:04:07.933Z,4.07
2023-02-05T10:07:20.660Z,4.40
2023-02-05T10:10:00.941Z,3.90
2023-02-05T10:12:44.239Z,4.55
2023-02-05T10:15:38.450Z,4.30
2023-02-05T10:18:16.015Z,5.07
2023-02-05T10:20:54.679Z,4.25
2023-02-05T10:23:51.590Z,4.47
2023-02-05T10:26:19.631Z,4.50
2023-02-05T10:29:10.477Z,5.45
2023-02-05T10:31:44.092Z,5.60
2023-02-05T10:34:20.569Z,5.70
2023-02-05T10:36:53.030Z,5.00
2023-02-05T10:39:23.201Z,5.15
2023-02-05T10:41:58.620Z,5.20
2023-02-05T10:44:32.739Z,5.05
2023-02-05T10:47:07.678Z,4.72
2023-02-05T10:49:47.149Z,5.83
2023-02-05T10:52:17.072Z,4.97
2023-02-05T10:54:46.542Z,5.20
2023-02-05T10:57:16.476Z,7.55
2023-02-05T10:59:54.495Z,4.70
2023-02-05T11:02:25.188Z,4.50
2023-02-05T11:04:57.767Z,5.63
2023-02-05T11:07:31.141Z,5.10
2023-02-05T11:10:15.457Z,5.28
2023-02-05T11:12:45.857Z,4.40
2023-02-05T11:15:24.579Z,3.90
2023-02-05T11:17:54.897Z,5.10
2023-02-05T11:20:29.315Z,4.93
2023-02-05T11:23:16.487Z,6.30
2023-02-05T11:25:52.684Z,5.83
2023-02-05T11:28:27.487Z,5.85
2023-02-05T11:30:58.434Z,5.50
2023-02-05T11:33:30.808Z,4.07
2023-02-05T11:36:01.887Z,6.53
2023-02-05T11:38:39.034Z,10.07
2023-02-05T11:41:10.994Z,6.40
2023-02-05T11:43:41.858Z,8.07
2023-02-05T11:46:16.627Z,7.50
2023-02-05T11:48:47.047Z,5.33
2023-02-05T11:51:16.833Z,4.90
2023-02-05T11:53:55.223Z,4.85
2023-02-05T11:56:25.620Z,7.50
2023-02-05T11:59:01.747Z,12.77
2023-02-05T12:01:34.144Z,4.50
2023-02-05T12:04:04.306Z,5.70
2023-02-05T12:06:39.240Z,5.07
2023-02-05T12:09:07.598Z,3.73
2023-02-05T12:12:11.343Z,3.70
2023-02-05T12:14:45.876Z,4.80
2023-02-05T12:17:28.942Z,4.10
2023-02-05T12:20:04.735Z,6.07
2023-02-05T12:22:52.226Z,4.30
2023-02-05T12:25:26.716Z,4.67
2023-02-05T12:28:15.327Z,3.83
2023-02-05T12:30:58.169Z,3.67
2023-02-05T12:33:44.026Z,3.30
2023-02-05T12:36:30.881Z,3.65
2023-02-05T12:39:10.136Z,4.10
2023-02-05T12:41:46.912Z,3.97
2023-02-05T12:44:30.262Z,3.93
2023-02-05T12:47:11.596Z,4.17
2023-02-05T12:50:06.768Z,4.65
2023-02-05T12:52:51.170Z,4.33
2023-02-05T12:55:31.997Z,3.13
2023-02-05T12:58:04.751Z,3.43
2023-02-05T13:00:38.952Z,2.37
2023-02-05T13:03:15.500Z,2.53
2023-02-05T13:05:49.207Z,3.00
2023-02-05T13:08:21.758Z,3.45
2023-02-05T13:10:56.086Z,3.83
2023-02-05T13:13:27.825Z,3.27
2023-02-05T13:16:02.350Z,3.65
2023-02-05T13:18:35.128Z,3.73
2023-02-05T13:21:25.660Z,4.30
2023-02-05T13:24:30.682Z,4.47
2023-02-05T13:27:16.755Z,3.40
2023-02-05T13:29:51.509Z,4.40
2023-02-05T13:32:24.123Z,5.00
2023-02-05T13:34:54.894Z,4.73
2023-02-05T13:37:52.890Z,4.20
2023-02-05T13:40:45.478Z,3.53
2023-02-05T13:43:35.762Z,3.30
2023-02-05T13:46:33.024Z,2.80
2023-02-05T13:49:40.598Z,3.00
2023-02-05T13:52:43.249Z,2.85
2023-02-05T13:55:48.422Z,3.10
2023-02-05T13:58:22.281Z,2.40
2023-02-05T14:00:59.418Z,3.47
2023-02-05T14:03:35.291Z,3.10
2023-02-05T14:06:21.817Z,3.20
2023-02-05T14:08:57.487Z,3.37
2023-02-05T14:11:25.894Z,3.77
2023-02-05T14:14:21.324Z,3.40
2023-02-05T14:16:50.701Z,3.57
2023-02-05T14:19:24.089Z,3.40
2023-02-05T14:22:12.795Z,3.40
2023-02-05T14:24:45.666Z,3.43
2023-02-05T14:27:51.227Z,3.25
2023-02-05T14:30:49.579Z,2.80
2023-02-05T14:33:45.341Z,2.80
2023-02-05T14:36:33.360Z,3.60
2023-02-05T14:39:05.314Z,3.87
2023-02-05T14:41:50.751Z,2.97
2023-02-05T14:44:22.544Z,3.43
2023-02-05T14:47:06.514Z,2.97
2023-02-05T14:49:44.956Z,2.60
2023-02-05T14:52:29.856Z,2.63
2023-02-05T14:55:02.151Z,2.90
2023-02-05T14:57:42.388Z,2.50
2023-02-05T15:00:26.973Z,2.80
2023-02-05T15:03:29.500Z,2.85
2023-02-05T15:06:02.450Z,2.80
2023-02-05T15:08:50.223Z,3.28
2023-02-05T15:11:29.796Z,2.60
2023-02-05T15:14:33.209Z,4.40
2023-02-05T15:17:48.821Z,3.88
2023-02-05T15:20:27.580Z,3.92
2023-02-05T15:23:19.520Z,3.40
2023-02-05T15:25:55.065Z,3.95
2023-02-05T15:28:30.617Z,4.05
2023-02-05T15:31:18.358Z,3.42
2023-02-05T15:33:57.302Z,4.25
2023-02-05T15:36:32.681Z,3.90
2023-02-05T15:39:16.782Z,3.95
2023-02-05T15:41:46.462Z,3.35
2023-02-05T15:44:27.912Z,6.70
2023-02-05T15:46:59.327Z,6.63
2023-02-05T15:49:33.613Z,4.30
2023-02-05T15:52:02.754Z,4.72
2023-02-05T15:54:34.647Z,4.22
2023-02-05T15:57:05.634Z,5.03
2023-02-05T15:59:34.861Z,4.20
2023-02-05T16:02:18.682Z,18.48
2023-02-05T16:04:53.766Z,9.82
2023-02-05T16:07:24.864Z,7.38
2023-02-05T16:09:56.142Z,5.43
2023-02-05T16:12:26.455Z,4.50
2023-02-05T16:15:02.635Z,5.55
2023-02-05T16:17:39.258Z,4.75
2023-02-05T16:20:26.741Z,4.40
2023-02-05T16:22:59.154Z,3.50
2023-02-05T16:25:42.561Z,4.33
2023-02-05T16:28:17.988Z,4.32
2023-02-05T16:30:48.553Z,3.60
2023-02-05T16:33:27.846Z,4.55
2023-02-05T16:35:57.626Z,4.95
2023-02-05T16:38:26.273Z,9.77
2023-02-05T16:40:56.711Z,7.03
2023-02-05T16:43:32.516Z,6.40
2023-02-05T16:46:23.094Z,4.75
2023-02-05T16:48:54.509Z,4.50
2023-02-05T16:51:32.799Z,4.55
2023-02-05T16:54:02.017Z,3.95
2023-02-05T16:56:33.429Z,4.53
2023-02-05T16:59:04.221Z,4.45
2023-02-05T17:01:38.122Z,5.10
2023-02-05T17:04:08.619Z,5.40
2023-02-05T17:06:38.686Z,5.75
2023-02-05T17:09:07.185Z,5.35
2023-02-05T17:11:38.590Z,5.40
2023-02-05T17:14:22.974Z,4.75
2023-02-05T17:16:59.292Z,4.28
2023-02-05T17:19:30.603Z,4.50
2023-02-05T17:22:20.961Z,4.18
2023-02-05T17:24:51.821Z,4.13
2023-02-05T17:27:25.967Z,4.63
2023-02-05T17:29:54.396Z,4.97
2023-02-05T17:32:23.370Z,4.65
2023-02-05T17:34:52.881Z,3.95
2023-02-05T17:37:21.198Z,3.75
2023-02-05T17:39:49.905Z,3.95
2023-02-05T17:42:22.108Z,5.05
2023-02-05T17:44:50.562Z,7.25
2023-02-05T17:47:18.740Z,4.22
2023-02-05T17:49:47.408Z,4.90
2023-02-05T17:52:17.306Z,3.95
2023-02-05T17:54:46.502Z,3.47
2023-02-05T17:57:17.640Z,4.25
2023-02-05T17:59:46.337Z,4.43
2023-02-05T18:02:15.445Z,7.10
2023-02-05T18:04:44.975Z,5.18
2023-02-05T18:07:22.956Z,5.27
2023-02-05T18:09:51.038Z,5.18
2023-02-05T18:12:19.087Z,5.00
2023-02-05T18:14:47.245Z,5.40
2023-02-05T18:17:15.432Z,4.43
2023-02-05T18:19:44.300Z,4.55
2023-02-05T18:22:12.482Z,6.22
2023-02-05T18:24:42.542Z,6.10
2023-02-05T18:27:12.012Z,5.80
2023-02-05T18:29:42.720Z,7.10
2023-02-05T18:32:11.845Z,6.13
2023-02-05T18:34:40.105Z,6.15
2023-02-05T18:37:08.260Z,6.60
2023-02-05T18:39:36.374Z,7.05
2023-02-05T18:42:06.061Z,6.93
2023-02-05T18:44:35.058Z,8.63
2023-02-05T18:47:03.820Z,9.23
2023-02-05T18:49:32.106Z,8.35
2023-02-05T18:52:00.391Z,9.73
2023-02-05T18:54:30.192Z,6.82
2023-02-05T18:56:58.405Z,6.65
2023-02-05T18:59:27.876Z,5.15
2023-02-05T19:01:56.274Z,5.30
2023-02-05T19:04:26.910Z,6.20
2023-02-05T19:06:55.573Z,7.30
2023-02-05T19:09:25.540Z,7.15
2023-02-05T19:11:55.375Z,6.75
2023-02-05T19:14:25.184Z,5.82
2023-02-05T19:16:54.898Z,4.90
2023-02-05T19:19:25.247Z,4.60
2023-02-05T19:21:55.757Z,3.95
2023-02-05T19:24:23.886Z,5.40
2023-02-05T19:26:52.036Z,6.10
2023-02-05T19:29:21.851Z,8.93
2023-02-05T19:31:53.381Z,9.25
2023-02-05T19:34:23.526Z,8.20
2023-02-05T19:36:51.672Z,6.67
2023-02-05T19:39:19.977Z,6.90
2023-02-05T19:41:49.217Z,5.30
2023-02-05T19:44:19.313Z,4.40
2023-02-05T19:46:48.862Z,4.33
2023-02-05T19:49:19.481Z,5.10
2023-02-05T19:51:50.812Z,5.55
2023-02-05T19:54:21.601Z,5.68
2023-02-05T19:56:50.493Z,4.80
2023-02-05T19:59:18.705Z,5.35
2023-02-05T20:01:47.347Z,6.03
2023-02-05T20:04:19.237Z,5.57
2023-02-05T20:06:49.812Z,5.00
2023-02-05T20:09:18.729Z,5.55
2023-02-05T20:11:49.223Z,5.83
2023-02-05T20:14:19.993Z,6.72
2023-02-05T20:16:48.432Z,6.28
2023-02-05T20:19:18.205Z,7.65
2023-02-05T20:21:48.683Z,6.57
2023-02-05T20:24:17.618Z,7.88
2023-02-05T20:26:48.343Z,7.50
2023-02-05T20:29:34.791Z,7.05
2023-02-05T20:32:02.920Z,7.65
2023-02-05T20:34:34.010Z,7.25
2023-02-05T20:37:07.188Z,7.38
2023-02-05T20:39:39.724Z,8.20
2023-02-05T20:42:07.997Z,7.70
2023-02-05T20:44:37.238Z,7.30
2023-02-05T20:47:06.025Z,7.63
2023-02-05T20:49:35.801Z,9.05
2023-02-05T20:52:06.012Z,8.43
2023-02-05T20:54:34.632Z,7.60
2023-02-05T20:57:03.002Z,7.80
2023-02-05T20:59:32.850Z,7.28
2023-02-05T21:02:02.653Z,8.00
2023-02-05T21:04:31.266Z,9.43
2023-02-05T21:06:59.512Z,8.30
2023-02-05T21:09:29.132Z,7.90
2023-02-05T21:11:57.337Z,7.65
2023-02-05T21:14:25.911Z,8.15
2023-02-05T21:16:54.322Z,7.95
2023-02-05T21:19:23.122Z,8.32
2023-02-05T21:21:52.230Z,8.07
2023-02-05T21:24:20.776Z,7.30
2023-02-05T21:26:50.853Z,7.88
2023-02-05T21:29:21.242Z,7.35
2023-02-05T21:31:53.070Z,8.77
2023-02-05T21:34:23.321Z,8.00
2023-02-05T21:36:51.994Z,8.30
2023-02-05T21:39:21.341Z,9.02
2023-02-05T21:41:51.567Z,10.13
2023-02-05T21:44:19.724Z,9.43
2023-02-05T21:46:47.826Z,8.32
2023-02-05T21:49:16.036Z,8.88
2023-02-05T21:51:44.182Z,9.05
2023-02-05T21:54:13.136Z,9.43
2023-02-05T21:56:43.128Z,9.80
2023-02-05T21:59:13.089Z,9.38
2023-02-05T22:01:42.175Z,11.00
2023-02-05T22:04:12.997Z,10.30
2023-02-05T22:06:41.844Z,10.50
2023-02-05T22:09:12.194Z,10.20
2023-02-05T22:11:41.116Z,10.75
2023-02-05T22:14:10.183Z,10.65
2023-02-05T22:16:40.096Z,11.35
2023-02-05T22:19:08.817Z,10.00
2023-02-05T22:21:38.535Z,9.95
2023-02-05T22:24:08.270Z,10.55
2023-02-05T22:26:39.299Z,11.45
2023-02-05T22:29:09.510Z,10.73
2023-02-05T22:31:39.196Z,12.02
2023-02-05T22:34:07.680Z,11.95
2023-02-05T22:36:36.405Z,11.68
2023-02-05T22:39:06.155Z,11.05
2023-02-05T22:41:37.128Z,12.48
2023-02-05T22:44:06.721Z,11.05
2023-02-05T22:46:38.799Z,11.90
2023-02-05T22:49:08.522Z,10.30
2023-02-05T22:51:39.253Z,12.55
2023-02-05T22:54:08.867Z,12.05
2023-02-05T22:56:38.118Z,12.27
2023-02-05T22:59:06.453Z,12.30
2023-02-05T23:01:36.084Z,12.68
2023-02-05T23:04:06.242Z,13.30
2023-02-05T23:06:37.548Z,12.00
2023-02-05T23:09:07.803Z,12.57
2023-02-05T23:11:37.008Z,12.70
2023-02-05T23:14:06.738Z,12.65
2023-02-05T23:16:36.747Z,12.43
2023-02-05T23:19:07.945Z,13.55
2023-02-05T23:21:39.524Z,12.77
2023-02-05T23:24:08.568Z,12.45
2023-02-05T23:26:39.998Z,14.57
2023-02-05T23:29:08.695Z,12.55
2023-02-05T23:31:37.930Z,11.45
2023-02-05T23:34:06.779Z,13.30
2023-02-05T23:36:35.449Z,12.88
2023-02-05T23:39:05.256Z,14.93
2023-02-05T23:41:36.730Z,16.20
2023-02-05T23:44:11.363Z,15.57
2023-02-05T23:46:40.782Z,13.00
2023-02-05T23:49:09.488Z,12.45
2023-02-05T23:51:38.116Z,13.10
2023-02-05T23:54:08.571Z,13.25
2023-02-05T23:56:36.676Z,12.00
2023-02-05T23:59:05.173Z,12.48
